RJBM(METAR)
10/21 04:26
RJBM 201926Z 15003KT 8000 FEW002 BKN004 12/11 Q1023 RMK 1ST002
5ST004 A3023=
戻る
トップページへ戻る
IMOC Co,.Ltd.